Jalalabad, Jalalabad Airport (OAJL)

NameJalalabad Airport
CityJalalabad
CountryAfghanistan
ICAOOAJL
IATAJAA
Altitude561 m
CoordinatesGoogle Map
Live Air TrafficLiveATC.net
METAROAJL 160755Z VRB04KT 9999 FEW150 24/09 A2996 RMK AO2A SLP121 T02430086
2018-10-16 07:55:00 Wind: North (0°) 2.06 m/s - Visibility: > 10000 m - Temperature: 24 °C - Dew point: 9 °C - Humidity: 38.6% - Pressure: 1014.56 hPa
Statistics

The table below shows the detailed information of all flights to/from Jalalabad, Jalalabad Airport (OAJL).